createdAt,value
2019-05-30T00:03:58.854Z,10.65
2019-05-30T00:09:04.613Z,10.55
2019-05-30T00:14:08.918Z,10.15
2019-05-30T00:19:13.230Z,11.12
2019-05-30T00:24:17.535Z,10.03
2019-05-30T00:29:21.848Z,10.45
2019-05-30T00:34:26.150Z,9.50
2019-05-30T00:39:30.453Z,9.05
2019-05-30T00:44:34.770Z,8.53
2019-05-30T00:49:39.088Z,8.05
2019-05-30T00:54:43.382Z,6.75
2019-05-30T00:59:47.700Z,6.28
2019-05-30T01:04:51.991Z,5.17
2019-05-30T01:09:56.819Z,4.85
2019-05-30T01:15:01.241Z,4.72
2019-05-30T01:20:08.850Z,4.40
2019-05-30T01:25:14.950Z,4.03
2019-05-30T01:30:19.496Z,3.58
2019-05-30T01:35:23.802Z,3.30
2019-05-30T01:40:28.103Z,3.33
2019-05-30T01:45:32.413Z,2.85
2019-05-30T01:50:36.719Z,2.80
2019-05-30T01:55:41.017Z,2.70
2019-05-30T02:00:45.333Z,2.27
2019-05-30T02:05:49.627Z,2.17
2019-05-30T02:10:53.931Z,1.70
2019-05-30T02:15:59.474Z,1.60
2019-05-30T02:21:03.912Z,1.90
2019-05-30T02:26:08.323Z,1.87
2019-05-30T02:31:12.696Z,1.47
2019-05-30T02:36:16.996Z,1.80
2019-05-30T02:41:21.292Z,1.47
2019-05-30T02:46:25.588Z,1.60
2019-05-30T02:51:29.895Z,1.60
2019-05-30T02:56:34.196Z,1.98
2019-05-30T03:01:58.393Z,1.75
2019-05-30T03:06:45.025Z,1.95
2019-05-30T03:11:49.563Z,1.90
2019-05-30T03:16:53.864Z,1.82
2019-05-30T03:21:58.162Z,2.10
2019-05-30T03:27:02.691Z,2.12
2019-05-30T03:32:49.066Z,1.80
2019-05-30T03:42:20.022Z,1.80
2019-05-30T03:47:27.095Z,2.20
2019-05-30T03:52:32.634Z,2.17
2019-05-30T03:57:44.346Z,2.17
2019-05-30T04:02:58.997Z,2.58
2019-05-30T04:08:06.649Z,2.50
2019-05-30T04:13:24.259Z,3.08
2019-05-30T04:18:28.540Z,3.20
2019-05-30T04:23:32.843Z,3.77
2019-05-30T04:28:37.213Z,3.65
2019-05-30T04:33:41.519Z,3.50
2019-05-30T04:38:45.815Z,4.15
2019-05-30T04:43:50.119Z,3.62
2019-05-30T04:48:54.415Z,4.28
2019-05-30T04:53:58.719Z,4.60
2019-05-30T04:59:03.019Z,4.42
2019-05-30T05:04:07.315Z,3.87
2019-05-30T05:09:12.028Z,4.30
2019-05-30T05:14:16.499Z,5.40
2019-05-30T05:19:22.435Z,5.05
2019-05-30T05:24:26.817Z,4.90
2019-05-30T05:29:31.124Z,4.70
2019-05-30T05:34:35.428Z,5.10
2019-05-30T05:39:39.736Z,5.58
2019-05-30T05:44:44.046Z,5.03
2019-05-30T05:49:48.357Z,4.35
2019-05-30T05:54:52.661Z,5.62
2019-05-30T05:59:56.967Z,4.33
2019-05-30T06:05:01.277Z,4.47
2019-05-30T06:10:07.099Z,4.42
2019-05-30T06:15:11.576Z,4.45
2019-05-30T06:20:17.460Z,4.33
2019-05-30T06:25:24.452Z,4.22
2019-05-30T06:30:28.793Z,3.87
2019-05-30T06:35:33.291Z,4.15
2019-05-30T06:40:37.631Z,4.50
2019-05-30T06:45:41.930Z,4.72
2019-05-30T06:50:46.226Z,5.35
2019-05-30T06:55:50.541Z,5.17
2019-05-30T07:00:54.831Z,6.17
2019-05-30T07:05:59.599Z,5.47
2019-05-30T07:11:04.323Z,5.37
2019-05-30T07:16:08.620Z,6.12
2019-05-30T07:21:12.942Z,5.40
2019-05-30T07:26:17.255Z,5.80
2019-05-30T07:31:21.558Z,7.30
2019-05-30T07:36:26.171Z,7.03
2019-05-30T07:41:30.682Z,8.08
2019-05-30T07:46:35.163Z,7.17
2019-05-30T07:51:39.587Z,9.15
2019-05-30T07:56:43.914Z,10.40
2019-05-30T08:01:48.235Z,10.00
2019-05-30T08:06:52.536Z,10.68
2019-05-30T08:11:56.853Z,11.00
2019-05-30T08:17:01.233Z,11.20
2019-05-30T08:22:05.670Z,11.30
2019-05-30T08:27:10.046Z,11.60
2019-05-30T08:32:14.433Z,13.32
2019-05-30T08:37:20.273Z,12.88
2019-05-30T08:42:27.762Z,14.33
2019-05-30T08:47:32.221Z,14.80
2019-05-30T08:52:38.678Z,14.00
2019-05-30T08:57:44.666Z,12.57
2019-05-30T09:02:49.047Z,11.08
2019-05-30T09:07:53.502Z,10.70
2019-05-30T09:12:57.872Z,10.40
2019-05-30T09:18:02.246Z,10.08
2019-05-30T09:23:06.721Z,10.85
2019-05-30T09:28:11.095Z,10.50
2019-05-30T09:33:15.413Z,11.65
2019-05-30T09:38:19.780Z,14.23
2019-05-30T09:43:24.090Z,15.53
2019-05-30T09:48:28.401Z,15.63
2019-05-30T09:53:32.766Z,16.10
2019-05-30T09:58:37.246Z,17.02
2019-05-30T10:03:43.075Z,16.20
2019-05-30T10:08:49.534Z,14.53
2019-05-30T10:13:54.164Z,13.38
2019-05-30T10:18:58.548Z,13.18
2019-05-30T10:24:02.890Z,42.70
2019-05-30T10:29:07.353Z,44.77
2019-05-30T10:34:11.839Z,38.40
2019-05-30T10:39:17.690Z,26.00
2019-05-30T10:44:21.993Z,27.82
2019-05-30T10:49:34.837Z,24.72
2019-05-30T10:54:32.574Z,22.02
2019-05-30T10:59:36.946Z,22.32
2019-05-30T11:04:41.258Z,17.45
2019-05-30T11:09:59.306Z,15.88
2019-05-30T11:15:04.527Z,13.83
2019-05-30T11:20:09.461Z,13.75
2019-05-30T11:25:14.115Z,15.93
2019-05-30T11:30:18.756Z,15.08
2019-05-30T11:35:23.071Z,15.45
2019-05-30T11:40:27.618Z,15.32
2019-05-30T11:45:32.173Z,16.12
2019-05-30T11:50:36.613Z,16.32
2019-05-30T11:55:40.929Z,16.45
2019-05-30T12:00:45.237Z,15.45
2019-05-30T12:05:50.452Z,16.37
2019-05-30T12:10:55.038Z,17.00
2019-05-30T12:15:59.681Z,16.73
2019-05-30T12:21:04.143Z,17.00
2019-05-30T12:26:08.590Z,16.50
2019-05-30T12:31:12.978Z,17.12
2019-05-30T12:36:17.287Z,23.42
2019-05-30T12:41:21.665Z,20.20
2019-05-30T12:46:25.972Z,14.93
2019-05-30T12:51:30.437Z,12.88
2019-05-30T12:56:34.886Z,12.65
2019-05-30T13:01:39.211Z,10.10
2019-05-30T13:06:45.051Z,7.40
2019-05-30T13:11:49.422Z,8.08
2019-05-30T13:16:55.624Z,7.70
2019-05-30T13:22:01.247Z,8.63
2019-05-30T13:27:06.071Z,8.60
2019-05-30T13:32:10.447Z,9.35
2019-05-30T13:37:14.982Z,9.58
2019-05-30T13:42:21.084Z,9.45
2019-05-30T13:47:25.554Z,9.10
2019-05-30T13:52:29.927Z,8.95
2019-05-30T13:57:34.477Z,7.53
2019-05-30T14:02:38.940Z,7.60
2019-05-30T14:07:43.422Z,7.97
2019-05-30T14:12:47.809Z,7.28
2019-05-30T14:17:52.264Z,7.10
2019-05-30T14:22:56.744Z,7.00
2019-05-30T14:28:04.169Z,7.05
2019-05-30T14:33:08.534Z,7.75
2019-05-30T14:38:13.017Z,7.67
2019-05-30T14:43:17.451Z,6.83
2019-05-30T14:48:23.295Z,6.75
2019-05-30T14:53:27.601Z,6.75
2019-05-30T14:58:31.973Z,27.13
2019-05-30T15:03:37.907Z,16.37
2019-05-30T15:08:42.725Z,8.45
2019-05-30T15:13:47.105Z,6.60
2019-05-30T15:18:51.470Z,4.97
2019-05-30T15:23:55.914Z,4.65
2019-05-30T15:29:00.348Z,3.42
2019-05-30T15:34:04.961Z,3.17
2019-05-30T15:39:10.828Z,2.90
2019-05-30T15:44:15.787Z,3.00
2019-05-30T15:49:20.216Z,3.05
2019-05-30T15:54:24.528Z,2.85
2019-05-30T15:59:28.906Z,3.20
2019-05-30T16:04:33.443Z,3.12
2019-05-30T16:09:46.686Z,3.10
2019-05-30T16:14:45.383Z,4.25
2019-05-30T16:19:51.228Z,4.00
2019-05-30T16:24:55.609Z,3.92
2019-05-30T16:29:59.994Z,3.12
2019-05-30T16:35:05.502Z,3.22
2019-05-30T16:40:10.715Z,3.00
2019-05-30T16:45:20.220Z,2.85
2019-05-30T16:50:24.353Z,4.40
2019-05-30T16:55:28.729Z,3.92
2019-05-30T17:00:33.378Z,4.30
2019-05-30T17:05:38.044Z,5.45
2019-05-30T17:10:43.292Z,6.17
2019-05-30T17:15:47.600Z,4.20
2019-05-30T17:20:51.907Z,4.50
2019-05-30T17:25:56.211Z,5.83
2019-05-30T17:31:00.593Z,4.47
2019-05-30T17:36:05.366Z,7.10
2019-05-30T17:41:09.675Z,6.65
2019-05-30T17:46:13.989Z,7.15
2019-05-30T17:51:19.668Z,6.85
2019-05-30T17:56:24.081Z,6.25
2019-05-30T18:01:28.510Z,11.05
2019-05-30T18:06:34.303Z,5.42
2019-05-30T18:11:38.599Z,4.33
2019-05-30T18:16:42.907Z,4.10
2019-05-30T18:21:47.213Z,6.35
2019-05-30T18:26:51.526Z,5.95
2019-05-30T18:31:55.908Z,5.12
2019-05-30T18:37:00.203Z,4.40
2019-05-30T18:42:04.599Z,4.47
2019-05-30T18:47:08.910Z,3.95
2019-05-30T18:52:13.223Z,5.37
2019-05-30T18:57:17.592Z,4.10
2019-05-30T19:02:21.893Z,4.20
2019-05-30T19:07:26.704Z,4.78
2019-05-30T19:12:32.165Z,5.12
2019-05-30T19:17:36.572Z,4.60
2019-05-30T19:22:41.658Z,5.08
2019-05-30T19:27:45.979Z,4.70
2019-05-30T19:32:50.285Z,4.50
2019-05-30T19:37:54.790Z,5.08
2019-05-30T19:42:59.251Z,4.30
2019-05-30T19:48:03.563Z,4.85
2019-05-30T19:53:08.040Z,7.00
2019-05-30T19:58:12.339Z,4.37
2019-05-30T20:03:16.726Z,4.85
2019-05-30T20:08:21.092Z,4.20
2019-05-30T20:13:25.391Z,4.42
2019-05-30T20:18:29.770Z,4.45
2019-05-30T20:23:48.413Z,4.67
2019-05-30T20:28:40.857Z,3.80
2019-05-30T20:33:45.259Z,3.83
2019-05-30T20:38:49.728Z,3.87
2019-05-30T20:43:54.037Z,4.47
2019-05-30T20:48:58.348Z,4.10
2019-05-30T20:54:02.652Z,4.58
2019-05-30T20:59:10.020Z,4.72
2019-05-30T21:04:12.998Z,4.50
2019-05-30T21:09:28.403Z,4.53
2019-05-30T21:14:27.386Z,4.10
2019-05-30T21:19:30.236Z,3.80
2019-05-30T21:24:34.547Z,4.20
2019-05-30T21:29:38.964Z,4.20
2019-05-30T21:34:44.464Z,3.65
2019-05-30T21:39:49.519Z,3.87
2019-05-30T21:44:53.815Z,4.20
2019-05-30T21:49:58.110Z,4.08
2019-05-30T21:55:03.384Z,3.60
2019-05-30T22:00:12.130Z,2.55
2019-05-30T22:05:16.498Z,2.50
2019-05-30T22:10:20.799Z,2.25
2019-05-30T22:15:25.100Z,2.40
2019-05-30T22:20:29.401Z,2.30
2019-05-30T22:25:33.693Z,2.20
2019-05-30T22:30:38.059Z,2.20
2019-05-30T22:35:42.734Z,2.00
2019-05-30T22:40:47.890Z,2.00
2019-05-30T22:45:52.517Z,2.60
2019-05-30T22:50:57.078Z,2.22
2019-05-30T22:56:01.394Z,2.20
2019-05-30T23:01:05.707Z,2.30
2019-05-30T23:06:10.006Z,2.22
2019-05-30T23:11:15.939Z,1.98
2019-05-30T23:16:20.231Z,2.10
2019-05-30T23:21:24.683Z,2.52
2019-05-30T23:26:28.979Z,2.60
2019-05-30T23:31:33.289Z,2.60
2019-05-30T23:36:37.650Z,2.50
2019-05-30T23:41:42.028Z,2.70
2019-05-30T23:46:47.860Z,2.42
2019-05-30T23:51:52.167Z,2.70
2019-05-30T23:56:56.598Z,2.55
